Time;durP1;ratioP1;P1;durP2;ratioP2;P2;SDS_P1;SDS_P2;PMS_P1;PMS_P2;Temp;Humidity;BMP_temperature;BMP_pressure;BME280_temperature;BME280_humidity;BME280_pressure;Samples;Min_cycle;Max_cycle;Signal;HPM_P1;HPM_P2
2023/11/29 00:01:30;;;;;;;2.33;1.70;;;17.50;55.30;;;;;;6107811;23;20212;-82
2023/11/29 00:03:56;;;;;;;4.20;1.30;;;17.50;55.30;;;;;;6091601;23;20270;-82
2023/11/29 00:26:54;;;;;;;3.28;1.48;;;17.50;55.50;;;;;;6137196;23;20210;-82
2023/11/29 00:29:21;;;;;;;5.30;1.85;;;17.50;55.30;;;;;;6111545;23;20160;-84
2023/11/29 00:31:46;;;;;;;5.20;2.13;;;17.50;55.50;;;;;;6091147;23;20160;-84
2023/11/29 00:34:18;;;;;;;2.85;1.50;;;17.50;55.50;;;;;;6140837;23;20139;-83
2023/11/29 00:36:46;;;;;;;4.20;1.50;;;17.50;55.10;;;;;;6142238;23;20136;-83
2023/11/29 00:39:12;;;;;;;2.58;1.73;;;17.50;55.20;;;;;;6117745;23;20151;-83
2023/11/29 00:41:38;;;;;;;2.05;1.50;;;17.60;55.80;;;;;;6168137;23;20473;-84
2023/11/29 00:44:03;;;;;;;2.42;1.50;;;17.50;55.30;;;;;;6141888;23;20179;-82
2023/11/29 00:46:30;;;;;;;1.90;1.58;;;17.50;55.40;;;;;;6167549;23;20571;-84
2023/11/29 00:48:55;;;;;;;3.63;1.75;;;17.50;55.70;;;;;;6142091;23;20132;-82
2023/11/29 00:51:22;;;;;;;3.55;1.77;;;17.50;55.50;;;;;;6140604;23;20139;-82
2023/11/29 00:53:53;;;;;;;2.88;1.90;;;17.50;55.50;;;;;;6116019;23;20148;-83
2023/11/29 00:56:20;;;;;;;4.38;1.73;;;17.50;55.30;;;;;;6140193;23;20135;-83
2023/11/29 00:58:45;;;;;;;5.03;1.67;;;17.50;56.10;;;;;;6140984;23;20143;-83
2023/11/29 01:01:17;;;;;;;2.92;1.40;;;17.50;55.40;;;;;;6139960;23;20495;-82
2023/11/29 01:03:43;;;;;;;3.97;1.63;;;17.40;55.60;;;;;;6140148;23;20238;-84
2023/11/29 01:06:13;;;;;;;1.58;1.25;;;17.50;55.50;;;;;;6141422;23;20143;-84
2023/11/29 01:08:43;;;;;;;6.00;1.83;;;17.40;55.70;;;;;;6140526;23;20198;-82
2023/11/29 01:13:59;;;;;;;3.50;1.65;;;17.40;55.70;;;;;;6153618;23;20215;-82
2023/11/29 01:16:26;;;;;;;2.33;1.40;;;17.50;55.60;;;;;;6115666;23;20131;-84
2023/11/29 01:18:52;;;;;;;4.22;1.63;;;17.40;55.50;;;;;;6115041;23;20226;-82
2023/11/29 01:21:17;;;;;;;5.88;1.50;;;17.40;55.70;;;;;;6140514;23;20156;-83
2023/11/29 01:26:20;;;;;;;3.42;1.52;;;17.40;55.60;;;;;;6163769;23;20210;-83
2023/11/29 01:28:47;;;;;;;2.28;1.35;;;17.40;55.40;;;;;;6113481;23;20182;-83
2023/11/29 01:31:18;;;;;;;2.65;1.60;;;17.40;55.70;;;;;;6138797;23;20139;-84
2023/11/29 01:33:44;;;;;;;3.38;1.60;;;17.40;55.50;;;;;;6112938;23;20159;-83
2023/11/29 01:36:12;;;;;;;5.03;1.65;;;17.40;55.50;;;;;;6114496;23;20210;-82
2023/11/29 01:38:38;;;;;;;4.22;1.92;;;17.40;55.60;;;;;;6139017;23;20166;-85
2023/11/29 01:41:07;;;;;;;4.40;1.70;;;17.40;55.90;;;;;;6114182;23;20147;-84
2023/11/29 01:43:36;;;;;;;2.13;1.60;;;17.40;55.80;;;;;;6138670;23;20214;-82
2023/11/29 01:46:02;;;;;;;2.20;1.73;;;17.40;55.90;;;;;;6138137;23;20236;-83
2023/11/29 01:48:31;;;;;;;5.75;1.70;;;17.40;55.90;;;;;;6114722;23;20223;-84
2023/11/29 01:56:00;;;;;;;6.35;1.50;;;17.40;55.90;;;;;;6155632;23;20221;-84
2023/11/29 01:58:29;;;;;;;3.60;1.73;;;17.40;55.80;;;;;;6167055;23;20155;-82
2023/11/29 02:00:57;;;;;;;2.80;1.55;;;17.40;55.90;;;;;;6166491;23;20143;-83
2023/11/29 02:03:23;;;;;;;5.32;1.50;;;17.40;55.80;;;;;;6166813;23;20167;-82
2023/11/29 02:05:49;;;;;;;2.20;1.25;;;17.30;56.00;;;;;;6166647;23;20253;-82
2023/11/29 02:08:15;;;;;;;5.55;1.70;;;17.30;56.20;;;;;;6167453;23;20192;-82
2023/11/29 02:15:52;;;;;;;2.38;1.45;;;17.30;56.10;;;;;;6150082;23;20209;-82
2023/11/29 02:18:22;;;;;;;2.65;1.38;;;17.30;56.20;;;;;;6164190;23;20154;-83
2023/11/29 02:20:48;;;;;;;2.47;1.40;;;17.30;56.20;;;;;;6088458;23;20220;-83
2023/11/29 02:23:20;;;;;;;2.65;1.45;;;17.30;56.00;;;;;;6113416;23;20627;-83
2023/11/29 02:25:46;;;;;;;3.17;1.40;;;17.30;55.80;;;;;;6065450;23;20616;-83
2023/11/29 02:33:23;;;;;;;3.22;1.40;;;17.40;56.00;;;;;;6139294;23;20216;-83
2023/11/29 02:51:28;;;;;;;3.67;1.30;;;17.30;56.30;;;;;;6160850;23;20202;-83
2023/11/29 02:53:53;;;;;;;2.55;1.45;;;17.30;56.20;;;;;;6138419;23;20639;-84
2023/11/29 02:56:19;;;;;;;2.72;1.60;;;17.30;56.20;;;;;;6137490;23;20159;-82
2023/11/29 02:58:45;;;;;;;4.00;1.50;;;17.30;56.30;;;;;;6113593;23;20136;-82
2023/11/29 03:01:12;;;;;;;1.65;1.50;;;17.30;56.40;;;;;;6137692;23;20131;-83
2023/11/29 03:03:42;;;;;;;3.05;1.38;;;17.20;56.10;;;;;;6137204;23;20188;-83
2023/11/29 03:06:07;;;;;;;3.47;1.20;;;17.30;56.30;;;;;;6086286;23;20159;-82
2023/11/29 03:08:33;;;;;;;2.58;1.40;;;17.30;56.40;;;;;;6136793;23;20500;-84
2023/11/29 03:11:03;;;;;;;4.00;1.58;;;17.20;56.20;;;;;;6136262;23;20155;-82
2023/11/29 03:13:33;;;;;;;1.98;1.52;;;17.30;56.40;;;;;;6134821;23;20159;-82
2023/11/29 03:16:02;;;;;;;4.35;1.30;;;17.30;56.40;;;;;;6135387;23;20151;-83
2023/11/29 03:18:29;;;;;;;2.78;1.40;;;17.30;56.50;;;;;;6113499;23;20143;-82
2023/11/29 03:20:57;;;;;;;3.00;1.58;;;17.20;56.30;;;;;;6138166;23;20136;-83
2023/11/29 03:23:23;;;;;;;4.15;1.40;;;17.20;56.30;;;;;;6111522;23;20242;-82
2023/11/29 03:25:49;;;;;;;2.13;1.58;;;17.20;56.50;;;;;;6112908;23;20207;-82
2023/11/29 03:28:14;;;;;;;3.28;1.55;;;17.20;56.30;;;;;;6112368;23;20140;-83
2023/11/29 03:30:40;;;;;;;3.47;1.63;;;17.20;56.40;;;;;;6138468;23;20467;-83
2023/11/29 03:33:06;;;;;;;1.70;1.30;;;17.20;56.40;;;;;;6163401;23;20448;-82
2023/11/29 03:35:32;;;;;;;5.55;1.50;;;17.20;57.20;;;;;;6137415;23;20671;-83
2023/11/29 03:37:58;;;;;;;2.17;1.52;;;17.20;56.30;;;;;;6137477;23;20626;-82
2023/11/29 03:40:24;;;;;;;3.28;1.35;;;17.10;56.30;;;;;;6113318;23;20166;-83
2023/11/29 03:42:50;;;;;;;2.50;1.40;;;17.20;56.40;;;;;;6164276;23;20163;-84
2023/11/29 03:45:16;;;;;;;1.60;1.27;;;17.20;56.30;;;;;;6137383;23;20219;-82
2023/11/29 03:47:44;;;;;;;2.38;1.50;;;17.30;56.30;;;;;;6111723;23;20151;-82
2023/11/29 03:50:09;;;;;;;2.58;1.15;;;17.20;56.40;;;;;;6135230;23;20132;-83
2023/11/29 03:52:35;;;;;;;3.83;1.60;;;17.20;56.30;;;;;;6162302;23;20155;-83
2023/11/29 03:55:01;;;;;;;2.55;1.48;;;17.20;56.50;;;;;;6136319;23;20170;-83
2023/11/29 03:57:34;;;;;;;1.50;1.40;;;17.20;56.10;;;;;;6111662;23;20531;-82
2023/11/29 04:00:04;;;;;;;2.05;1.35;;;17.10;56.40;;;;;;6111514;23;20154;-82
2023/11/29 04:02:30;;;;;;;2.83;1.42;;;17.20;56.30;;;;;;6135815;23;20183;-82
2023/11/29 04:04:56;;;;;;;1.80;1.25;;;17.20;56.40;;;;;;6164249;23;20163;-82
2023/11/29 04:12:19;;;;;;;3.13;1.70;;;17.20;56.40;;;;;;6161966;23;20677;-83
2023/11/29 04:14:45;;;;;;;3.65;1.55;;;17.10;56.40;;;;;;6109450;23;20155;-82
2023/11/29 04:17:15;;;;;;;2.15;1.40;;;17.20;56.40;;;;;;6134894;23;20524;-83
2023/11/29 04:19:41;;;;;;;1.92;1.60;;;17.20;56.40;;;;;;6132942;23;20217;-82
2023/11/29 04:22:06;;;;;;;3.92;1.55;;;17.20;56.50;;;;;;6111256;23;20576;-83
2023/11/29 04:24:34;;;;;;;2.25;1.55;;;17.20;56.50;;;;;;6137174;23;20140;-82
2023/11/29 04:27:00;;;;;;;1.48;1.20;;;17.10;56.50;;;;;;6110184;23;20155;-83
2023/11/29 04:29:26;;;;;;;2.65;1.63;;;17.20;56.40;;;;;;6135083;23;20135;-84
2023/11/29 04:31:53;;;;;;;2.85;1.52;;;17.20;56.50;;;;;;6136760;23;20136;-85
2023/11/29 04:36:44;;;;;;;2.08;1.13;;;17.20;56.50;;;;;;6149613;23;20210;-83
2023/11/29 04:39:12;;;;;;;1.70;1.33;;;17.20;56.40;;;;;;6137532;23;20132;-85
2023/11/29 04:41:40;;;;;;;2.17;1.50;;;17.20;56.70;;;;;;6137564;23;20123;-83
2023/11/29 04:44:07;;;;;;;4.70;1.40;;;17.20;56.20;;;;;;6137287;23;20190;-83
2023/11/29 04:46:39;;;;;;;2.63;1.58;;;17.20;56.40;;;;;;6162934;23;20132;-82
2023/11/29 04:49:11;;;;;;;3.30;1.35;;;17.20;56.40;;;;;;6136987;23;20132;-82
2023/11/29 04:51:42;;;;;;;2.22;1.30;;;17.20;56.60;;;;;;6112063;23;20531;-82
2023/11/29 05:12:06;;;;;;;1.73;1.27;;;17.10;57.00;;;;;;6152196;23;20210;-83
2023/11/29 05:14:33;;;;;;;4.00;1.70;;;17.10;56.50;;;;;;6163266;23;20139;-84
2023/11/29 05:16:59;;;;;;;1.63;1.52;;;17.10;56.40;;;;;;6137372;23;20147;-83
2023/11/29 05:19:24;;;;;;;1.55;1.13;;;17.10;56.60;;;;;;6137248;23;20810;-83
2023/11/29 05:21:50;;;;;;;2.67;1.30;;;17.10;56.40;;;;;;6138558;23;20189;-83
2023/11/29 05:24:16;;;;;;;2.53;1.42;;;17.10;56.50;;;;;;6137872;23;20168;-82
2023/11/29 05:26:42;;;;;;;2.28;1.35;;;17.20;56.60;;;;;;6138239;23;20151;-83
2023/11/29 05:29:15;;;;;;;1.98;1.38;;;17.10;56.60;;;;;;6112971;23;20223;-84
2023/11/29 05:31:43;;;;;;;2.65;1.55;;;17.10;56.70;;;;;;6137278;23;20214;-85
2023/11/29 05:34:10;;;;;;;3.55;1.60;;;17.10;56.60;;;;;;6137550;23;20140;-84
2023/11/29 05:36:37;;;;;;;2.17;1.52;;;17.10;56.50;;;;;;6137582;23;20479;-83
2023/11/29 05:39:09;;;;;;;1.85;1.60;;;17.10;56.80;;;;;;6137252;23;20169;-82
2023/11/29 05:41:35;;;;;;;1.80;1.38;;;17.10;56.60;;;;;;6061750;23;20503;-82
2023/11/29 05:44:05;;;;;;;1.85;1.40;;;17.10;56.50;;;;;;6162604;23;20170;-83
2023/11/29 05:46:32;;;;;;;3.60;1.52;;;17.10;56.40;;;;;;6162813;23;20199;-84
2023/11/29 05:48:59;;;;;;;1.63;1.45;;;17.10;56.40;;;;;;6090552;23;20150;-83
2023/11/29 05:51:27;;;;;;;1.65;1.25;;;17.00;56.40;;;;;;6165401;23;20136;-82
2023/11/29 05:53:52;;;;;;;1.45;1.15;;;17.10;56.60;;;;;;6138111;23;20154;-82
2023/11/29 05:56:21;;;;;;;2.00;1.50;;;17.10;56.50;;;;;;6138048;23;20611;-84
2023/11/29 05:58:50;;;;;;;1.92;1.40;;;17.10;56.40;;;;;;6089799;23;20136;-83
2023/11/29 06:01:20;;;;;;;2.92;1.40;;;17.10;56.60;;;;;;6112044;23;20153;-83
2023/11/29 06:03:47;;;;;;;1.65;1.40;;;17.10;56.60;;;;;;6135916;23;20191;-82
2023/11/29 06:06:14;;;;;;;1.50;1.20;;;17.00;56.60;;;;;;6135992;23;20211;-83
2023/11/29 06:08:41;;;;;;;1.95;1.27;;;17.10;56.40;;;;;;6111110;23;20155;-83
2023/11/29 06:11:11;;;;;;;3.25;1.55;;;17.10;56.60;;;;;;6136612;23;20158;-83
2023/11/29 06:13:37;;;;;;;1.75;1.30;;;17.10;56.50;;;;;;6111493;23;20220;-84
2023/11/29 06:16:05;;;;;;;2.35;1.60;;;17.10;56.20;;;;;;6136513;23;20167;-82
2023/11/29 06:18:30;;;;;;;1.73;1.38;;;17.10;56.50;;;;;;6137235;23;20158;-83
2023/11/29 06:20:58;;;;;;;2.35;1.58;;;17.10;56.60;;;;;;6164697;23;20560;-81
2023/11/29 06:23:23;;;;;;;3.08;1.50;;;17.10;56.50;;;;;;6114707;23;20178;-82
2023/11/29 06:25:54;;;;;;;1.92;1.40;;;17.10;56.40;;;;;;6139620;23;20131;-83
2023/11/29 06:28:22;;;;;;;3.05;1.40;;;17.10;56.60;;;;;;6063870;23;20147;-83
2023/11/29 06:30:48;;;;;;;3.40;1.77;;;17.10;56.50;;;;;;6136113;23;20136;-81
2023/11/29 06:33:13;;;;;;;3.17;1.20;;;17.10;56.60;;;;;;6135702;23;20159;-82
2023/11/29 06:35:41;;;;;;;1.92;1.38;;;17.10;56.60;;;;;;6161625;23;20218;-83
2023/11/29 06:38:11;;;;;;;1.88;1.33;;;17.10;56.50;;;;;;6112182;23;20170;-82
2023/11/29 06:40:38;;;;;;;1.70;1.40;;;17.10;56.40;;;;;;6110693;23;20160;-83
2023/11/29 06:43:04;;;;;;;1.48;1.38;;;17.00;56.50;;;;;;6102216;23;20207;-82
2023/11/29 06:45:33;;;;;;;2.85;1.40;;;17.10;56.60;;;;;;6082971;23;20170;-82
2023/11/29 06:47:59;;;;;;;2.40;1.30;;;17.10;56.40;;;;;;6083191;23;20160;-82
2023/11/29 06:50:28;;;;;;;1.83;1.45;;;17.10;56.40;;;;;;6134420;23;20159;-84
2023/11/29 06:53:00;;;;;;;2.63;1.48;;;17.10;56.30;;;;;;6106559;23;20231;-82
2023/11/29 06:55:32;;;;;;;2.00;1.40;;;17.10;56.40;;;;;;6079427;23;20151;-83
2023/11/29 06:57:58;;;;;;;3.28;1.40;;;17.20;56.40;;;;;;6039734;23;20202;-83
2023/11/29 07:00:25;;;;;;;1.92;1.40;;;17.10;56.50;;;;;;6136197;23;20194;-83
2023/11/29 07:02:52;;;;;;;1.83;1.52;;;17.10;56.50;;;;;;6112516;23;20537;-82
2023/11/29 07:05:17;;;;;;;1.90;1.50;;;17.10;56.80;;;;;;6111400;23;20148;-83
2023/11/29 07:07:44;;;;;;;1.67;1.40;;;17.00;56.80;;;;;;6113076;23;20282;-84
2023/11/29 07:10:11;;;;;;;1.95;1.30;;;16.90;56.60;;;;;;6115058;23;20146;-84
2023/11/29 07:12:42;;;;;;;1.95;1.50;;;17.00;56.20;;;;;;6139743;23;20142;-84
2023/11/29 07:15:08;;;;;;;1.75;1.35;;;17.00;56.20;;;;;;6064885;23;20151;-84
2023/11/29 07:17:36;;;;;;;1.75;1.30;;;17.00;55.70;;;;;;6138240;23;20136;-84
2023/11/29 07:20:04;;;;;;;3.13;1.23;;;17.20;56.10;;;;;;6139336;23;20131;-85
2023/11/29 07:22:38;;;;;;;3.45;1.50;;;17.10;55.80;;;;;;6113552;23;20225;-87
2023/11/29 07:25:12;;;;;;;1.85;1.20;;;17.10;55.90;;;;;;6071426;23;20600;-86
2023/11/29 07:27:40;;;;;;;2.95;1.23;;;17.20;55.80;;;;;;6025408;23;20200;-85
2023/11/29 07:40:29;;;;;;;3.38;1.80;;;17.20;55.30;;;;;;6074958;23;20184;-86
2023/11/29 07:43:22;;;;;;;1.52;1.23;;;17.20;54.80;;;;;;5991975;23;20205;-86
2023/11/29 07:45:50;;;;;;;1.45;1.13;;;17.20;55.40;;;;;;5976638;23;20231;-89
2023/11/29 07:48:24;;;;;;;1.92;1.30;;;17.20;54.80;;;;;;5980545;24;20152;-88
2023/11/29 07:51:04;;;;;;;1.83;1.33;;;17.20;54.50;;;;;;6034084;23;20229;-90
2023/11/29 07:53:41;;;;;;;2.55;1.25;;;17.20;54.70;;;;;;5981799;24;20171;-87
2023/11/29 07:56:59;;;;;;;3.28;1.25;;;17.20;54.70;;;;;;5979231;24;20183;-90
2023/11/29 07:59:52;;;;;;;;;;;;;;;;;;;;;
2023/11/29 08:03:14;;;;;;;;;;;;;;;;;;;;;
2023/11/29 08:06:27;;;;;;;;;;;;;;;;;;;;;
2023/11/29 08:12:27;;;;;;;1.58;1.10;;;17.20;54.90;;;;;;5919639;24;20156;-88
2023/11/29 08:16:29;;;;;;;2.00;1.55;;;17.30;53.70;;;;;;5896179;24;20176;-87
2023/11/29 08:19:51;;;;;;;4.85;1.23;;;17.40;55.00;;;;;;5887427;24;20166;-87
2023/11/29 08:46:05;;;;;;;2.47;1.38;;;17.50;53.30;;;;;;6107936;23;20667;-87
2023/11/29 08:48:41;;;;;;;2.03;1.40;;;17.50;54.20;;;;;;6014058;23;20157;-86
2023/11/29 08:51:11;;;;;;;4.82;1.98;;;17.50;54.70;;;;;;6012687;23;20232;-86
2023/11/29 08:53:52;;;;;;;4.45;1.40;;;17.60;54.20;;;;;;6048825;23;20166;-84
2023/11/29 08:56:19;;;;;;;4.00;1.17;;;17.60;54.50;;;;;;6150713;23;20554;-84
2023/11/29 08:58:56;;;;;;;4.45;1.65;;;17.50;55.20;;;;;;6115123;23;20153;-85
2023/11/29 09:01:26;;;;;;;4.53;1.52;;;17.50;55.30;;;;;;6091275;23;20239;-84
2023/11/29 09:03:56;;;;;;;4.80;1.45;;;17.60;55.30;;;;;;6044908;23;20188;-86
2023/11/29 09:06:50;;;;;;;3.17;1.55;;;17.60;55.40;;;;;;6068180;23;20157;-85
2023/11/29 09:09:18;;;;;;;4.80;1.90;;;17.60;55.30;;;;;;6088340;23;20164;-84
2023/11/29 09:11:44;;;;;;;2.63;1.40;;;17.60;55.40;;;;;;6064982;23;20180;-85
2023/11/29 09:14:11;;;;;;;5.80;1.60;;;17.70;54.60;;;;;;6113062;23;20179;-85
2023/11/29 09:16:46;;;;;;;5.57;1.80;;;17.80;54.90;;;;;;6078371;23;20158;-85
2023/11/29 09:19:16;;;;;;;6.35;1.70;;;17.80;55.20;;;;;;6101182;23;20157;-85
2023/11/29 09:21:45;;;;;;;2.45;1.40;;;17.70;54.30;;;;;;6054688;23;20213;-85
2023/11/29 09:24:18;;;;;;;1.92;1.70;;;17.90;54.10;;;;;;6057098;23;20301;-86
2023/11/29 09:27:05;;;;;;;2.63;1.40;;;17.90;54.20;;;;;;6057733;23;20154;-85
2023/11/29 09:29:34;;;;;;;1.70;1.38;;;17.80;54.80;;;;;;6053374;23;20180;-85
2023/11/29 09:32:12;;;;;;;3.90;1.40;;;17.80;55.20;;;;;;6054812;23;20198;-85
2023/11/29 09:34:43;;;;;;;3.45;1.90;;;17.80;55.20;;;;;;6052986;23;20164;-84
2023/11/29 09:40:40;;;;;;;5.30;1.30;;;17.90;54.50;;;;;;6001830;23;20166;-85
2023/11/29 09:44:00;;;;;;;3.63;1.33;;;17.90;54.90;;;;;;5955658;24;20203;-85
2023/11/29 09:47:43;;;;;;;3.92;1.63;;;18.00;53.20;;;;;;5997656;23;20202;-86
2023/11/29 09:51:06;;;;;;;;;;;;;;;;;;;;;
2023/11/29 09:54:12;;;;;;;5.25;1.52;;;18.10;53.80;;;;;;5887983;24;20161;-85
2023/11/29 10:10:34;;;;;;;10.77;1.67;;;18.00;55.10;;;;;;5915785;24;20167;-86
2023/11/29 10:13:32;;;;;;;6.15;1.95;;;18.10;54.70;;;;;;5912067;24;20192;-87
2023/11/29 10:26:21;;;;;;;;;;;;;;;;;;;;;
2023/11/29 11:20:53;;;;;;;3.28;1.15;;;18.10;55.70;;;;;;6086298;23;20172;-87
2023/11/29 11:24:10;;;;;;;3.15;1.20;;;18.20;55.50;;;;;;6028588;23;20161;-88
2023/11/29 11:31:06;;;;;;;;;;;;;;;;;;;;;
2023/11/29 11:34:23;;;;;;;2.25;1.00;;;18.10;55.70;;;;;;5774420;24;20180;-86
2023/11/29 11:37:25;;;;;;;2.70;1.10;;;18.10;55.60;;;;;;5750394;24;20203;-85
2023/11/29 11:46:54;;;;;;;3.13;1.10;;;18.10;55.40;;;;;;5732561;25;20610;-86
2023/11/29 11:49:48;;;;;;;1.88;1.20;;;18.00;55.30;;;;;;5718894;24;20220;-85
2023/11/29 11:52:16;;;;;;;3.35;1.15;;;18.00;55.40;;;;;;5789284;24;20582;-86
2023/11/29 11:55:12;;;;;;;2.00;1.00;;;18.10;55.00;;;;;;5809347;24;20156;-86
2023/11/29 12:01:53;;;;;;;2.63;1.35;;;18.10;55.00;;;;;;5724790;24;20218;-85
2023/11/29 12:04:28;;;;;;;1.77;1.10;;;18.10;55.30;;;;;;5689010;25;20230;-86
2023/11/29 12:06:59;;;;;;;3.58;1.33;;;18.00;55.60;;;;;;5661951;25;20171;-87
2023/11/29 12:09:27;;;;;;;1.85;1.15;;;18.10;55.70;;;;;;5676910;24;20201;-85
2023/11/29 12:12:30;;;;;;;3.40;1.13;;;18.10;55.70;;;;;;5727397;25;20173;-86
2023/11/29 12:18:51;;;;;;;1.75;1.27;;;18.00;55.20;;;;;;5671107;25;20174;-87
2023/11/29 20:15:42;;;;;;;7.43;1.45;;;18.30;55.30;;;;;;6136212;23;20256;-83
2023/11/29 20:18:21;;;;;;;6.40;1.90;;;18.30;55.70;;;;;;6141554;23;20163;-84
2023/11/29 20:20:57;;;;;;;3.45;1.58;;;18.30;54.70;;;;;;6125127;23;20138;-83
2023/11/29 20:23:23;;;;;;;1.80;1.50;;;18.20;55.60;;;;;;6117095;23;20146;-84
2023/11/29 20:25:55;;;;;;;5.00;1.48;;;18.20;54.70;;;;;;6095241;23;20165;-84
2023/11/29 20:28:26;;;;;;;3.22;1.75;;;18.20;55.00;;;;;;6097725;23;20282;-85
2023/11/29 20:31:04;;;;;;;3.33;1.73;;;18.20;54.60;;;;;;6094843;23;20268;-85
2023/11/29 20:33:34;;;;;;;4.28;1.52;;;18.30;54.30;;;;;;6091630;23;20246;-84
2023/11/29 20:36:03;;;;;;;4.05;1.67;;;18.30;54.40;;;;;;6139183;23;20139;-85
2023/11/29 20:38:42;;;;;;;3.95;1.90;;;18.20;54.30;;;;;;6117934;23;20155;-85
2023/11/29 20:41:33;;;;;;;;;;;;;;;;;;;;;
2023/11/29 20:44:04;;;;;;;2.50;1.35;;;18.30;55.50;;;;;;6025687;23;20176;-84
2023/11/29 20:46:29;;;;;;;3.42;1.75;;;18.20;55.00;;;;;;6027322;23;20779;-83
2023/11/29 20:49:03;;;;;;;3.47;1.65;;;18.20;53.90;;;;;;6028012;23;20189;-83
2023/11/29 20:51:36;;;;;;;2.45;1.50;;;18.20;54.60;;;;;;6002559;23;20158;-84
2023/11/29 20:54:18;;;;;;;10.65;1.58;;;18.20;55.70;;;;;;5943370;24;20152;-87
2023/11/29 20:56:56;;;;;;;1.75;1.30;;;18.20;55.40;;;;;;5940811;24;20309;-83
2023/11/29 20:59:32;;;;;;;4.25;1.40;;;18.10;55.30;;;;;;5917704;24;20160;-83
2023/11/29 21:01:58;;;;;;;3.55;1.20;;;18.10;56.00;;;;;;5914757;24;20163;-84
2023/11/29 21:04:32;;;;;;;3.38;1.40;;;18.10;55.90;;;;;;5959608;24;20153;-84
2023/11/29 21:07:00;;;;;;;2.75;1.35;;;18.00;56.40;;;;;;5894513;24;20224;-83
2023/11/29 21:09:33;;;;;;;4.57;1.35;;;18.00;56.30;;;;;;5915084;24;20167;-86
2023/11/29 21:12:02;;;;;;;2.42;1.40;;;18.00;56.60;;;;;;5933186;24;20155;-83
2023/11/29 21:14:34;;;;;;;3.75;1.60;;;18.00;56.60;;;;;;5946495;24;20181;-84
2023/11/29 21:17:17;;;;;;;2.85;1.50;;;18.00;56.70;;;;;;5939194;23;20205;-84
2023/11/29 21:19:59;;;;;;;6.68;1.20;;;18.00;56.70;;;;;;5965980;24;20215;-83
2023/11/29 21:22:30;;;;;;;3.63;1.25;;;18.00;57.50;;;;;;5991558;24;20152;-84
2023/11/29 21:24:56;;;;;;;2.92;1.27;;;17.90;56.70;;;;;;5976063;24;20151;-85
2023/11/29 21:27:32;;;;;;;3.35;1.63;;;18.00;56.60;;;;;;6021893;23;20350;-85
2023/11/29 21:30:03;;;;;;;4.95;1.38;;;17.90;56.50;;;;;;6001039;23;20240;-83
2023/11/29 21:32:30;;;;;;;1.60;1.20;;;17.90;56.60;;;;;;6047503;23;20229;-83
2023/11/29 21:34:57;;;;;;;1.60;1.10;;;17.90;56.30;;;;;;6047898;23;20232;-84
2023/11/29 21:37:27;;;;;;;1.38;1.23;;;17.90;56.60;;;;;;6047265;23;20161;-83
2023/11/29 21:40:00;;;;;;;3.00;1.30;;;18.00;56.60;;;;;;6000088;23;20163;-84
2023/11/29 21:42:41;;;;;;;1.95;1.30;;;17.90;56.60;;;;;;6024205;23;20150;-87
2023/11/29 21:45:18;;;;;;;4.80;1.45;;;17.90;56.70;;;;;;6024296;23;20160;-85
2023/11/29 21:47:44;;;;;;;2.35;1.45;;;17.90;56.60;;;;;;6001196;23;20189;-83
2023/11/29 21:50:09;;;;;;;4.30;1.40;;;17.80;56.80;;;;;;6130338;23;20672;-84
2023/11/29 21:52:45;;;;;;;2.83;1.20;;;17.80;56.90;;;;;;6114056;23;20154;-84
2023/11/29 21:55:16;;;;;;;2.75;1.10;;;17.80;57.00;;;;;;6113926;23;20237;-85
2023/11/29 21:57:41;;;;;;;2.33;1.17;;;17.80;56.90;;;;;;6079967;23;20156;-84
2023/11/29 22:00:15;;;;;;;1.90;1.20;;;17.80;56.90;;;;;;6103806;23;20149;-84
2023/11/29 22:02:45;;;;;;;3.20;1.30;;;17.80;57.00;;;;;;6079865;23;20160;-85
2023/11/29 22:05:19;;;;;;;2.75;1.30;;;17.80;56.90;;;;;;6086546;23;20231;-84
2023/11/29 22:07:50;;;;;;;1.60;1.20;;;17.80;56.80;;;;;;6086303;23;20185;-84
2023/11/29 22:10:33;;;;;;;2.53;1.27;;;17.80;57.10;;;;;;6061363;23;20147;-84
2023/11/29 22:13:06;;;;;;;2.80;1.40;;;17.70;57.20;;;;;;6062016;23;20158;-85
2023/11/29 22:15:36;;;;;;;2.13;1.20;;;17.80;57.20;;;;;;6050916;23;20608;-84
2023/11/29 22:18:02;;;;;;;2.50;1.50;;;17.80;57.30;;;;;;6004023;23;20172;-85
2023/11/29 22:20:30;;;;;;;2.55;1.42;;;17.70;57.20;;;;;;6028622;23;20157;-84
2023/11/29 22:23:11;;;;;;;3.20;1.55;;;17.70;57.10;;;;;;6040966;23;20510;-85
2023/11/29 22:25:43;;;;;;;3.00;1.50;;;17.70;57.10;;;;;;6052622;23;20172;-85
2023/11/29 22:28:08;;;;;;;1.85;1.23;;;17.60;57.20;;;;;;5994538;23;20214;-86
2023/11/29 22:30:34;;;;;;;2.63;1.30;;;17.70;57.20;;;;;;5994999;23;20161;-83
2023/11/29 22:33:00;;;;;;;1.80;1.23;;;17.70;57.20;;;;;;5992275;23;20195;-83
2023/11/29 22:35:34;;;;;;;4.15;1.40;;;17.60;57.30;;;;;;6015702;23;20303;-83
2023/11/29 22:38:11;;;;;;;3.20;1.35;;;17.70;57.10;;;;;;5945302;23;20206;-83
2023/11/29 22:40:41;;;;;;;3.00;1.20;;;17.70;57.30;;;;;;5945435;23;20162;-83
2023/11/29 22:43:16;;;;;;;2.38;1.23;;;17.70;57.40;;;;;;5944405;23;20178;-82
2023/11/29 22:45:48;;;;;;;4.63;1.27;;;17.70;57.00;;;;;;5945295;23;20154;-83
2023/11/29 22:48:19;;;;;;;1.30;1.20;;;17.60;57.30;;;;;;5943907;23;20212;-83
2023/11/29 22:50:45;;;;;;;3.80;1.17;;;17.70;57.30;;;;;;5968393;23;20151;-83
2023/11/29 22:53:12;;;;;;;1.90;1.30;;;17.60;57.20;;;;;;6043910;23;20149;-83
2023/11/29 22:55:38;;;;;;;2.92;1.23;;;17.70;57.00;;;;;;6077097;23;20161;-83
2023/11/29 22:58:05;;;;;;;3.65;1.58;;;17.70;57.30;;;;;;6083005;23;20173;-82
2023/11/29 23:00:30;;;;;;;3.60;1.35;;;17.60;57.40;;;;;;6165652;23;20135;-83
2023/11/29 23:03:02;;;;;;;2.22;1.33;;;17.60;57.30;;;;;;6141165;23;20625;-83
2023/11/29 23:05:36;;;;;;;4.22;1.30;;;17.60;57.30;;;;;;6091736;23;20154;-83
2023/11/29 23:08:06;;;;;;;2.22;1.30;;;17.60;57.50;;;;;;6091532;23;20189;-83
2023/11/29 23:10:32;;;;;;;2.55;1.40;;;17.60;57.50;;;;;;6091327;23;20485;-83
2023/11/29 23:15:34;;;;;;;1.77;1.40;;;17.60;57.40;;;;;;6157320;23;20203;-84
2023/11/29 23:18:07;;;;;;;2.45;1.50;;;17.50;57.60;;;;;;6062084;23;20151;-84
2023/11/29 23:20:33;;;;;;;2.90;1.30;;;17.60;57.70;;;;;;6062294;23;20152;-84
2023/11/29 23:23:04;;;;;;;3.15;1.23;;;17.50;57.50;;;;;;6111267;23;20591;-84
2023/11/29 23:25:30;;;;;;;2.70;1.63;;;17.50;57.70;;;;;;6086074;23;20157;-84
2023/11/29 23:27:55;;;;;;;2.00;1.40;;;17.50;57.60;;;;;;6087749;23;20206;-84
2023/11/29 23:30:21;;;;;;;1.80;1.40;;;17.50;57.60;;;;;;6111573;23;20564;-84
2023/11/29 23:32:48;;;;;;;1.38;1.08;;;17.50;57.70;;;;;;6110857;23;20186;-84
2023/11/29 23:35:14;;;;;;;1.75;1.33;;;17.50;57.60;;;;;;6136028;23;20132;-84
2023/11/29 23:37:40;;;;;;;2.15;1.20;;;17.60;57.80;;;;;;6135081;23;20582;-84
2023/11/29 23:40:06;;;;;;;2.33;1.20;;;17.60;57.80;;;;;;6135817;23;20132;-84
2023/11/29 23:42:33;;;;;;;2.47;1.52;;;17.50;57.50;;;;;;6110483;23;20140;-84
2023/11/29 23:45:01;;;;;;;2.40;1.40;;;17.50;57.60;;;;;;6134724;23;20128;-84
2023/11/29 23:47:32;;;;;;;2.10;1.20;;;17.50;57.70;;;;;;6134822;23;20178;-84
2023/11/29 23:49:58;;;;;;;2.92;1.60;;;17.50;57.80;;;;;;6037807;23;20661;-84
2023/11/29 23:52:23;;;;;;;3.15;1.33;;;17.50;57.80;;;;;;6134726;23;20156;-84
2023/11/29 23:54:50;;;;;;;1.50;1.10;;;17.50;57.80;;;;;;6111368;23;20178;-84
2023/11/29 23:57:17;;;;;;;2.45;1.25;;;17.50;58.00;;;;;;6136492;23;20148;-84
2023/11/29 23:59:43;;;;;;;2.35;1.63;;;17.40;57.70;;;;;;6112286;23;20235;-84
